createdAt,value
2023-02-26T00:01:48.613Z,2.95
2023-02-26T00:04:15.852Z,4.45
2023-02-26T00:06:53.112Z,5.28
2023-02-26T00:09:21.685Z,7.03
2023-02-26T00:11:49.696Z,2.55
2023-02-26T00:14:17.666Z,4.78
2023-02-26T00:16:52.184Z,3.33
2023-02-26T00:19:22.604Z,3.55
2023-02-26T00:21:50.198Z,3.22
2023-02-26T00:24:17.710Z,2.80
2023-02-26T00:26:44.884Z,3.35
2023-02-26T00:29:12.664Z,2.67
2023-02-26T00:31:40.344Z,2.55
2023-02-26T00:34:12.415Z,2.67
2023-02-26T00:36:45.189Z,2.40
2023-02-26T00:40:00.031Z,3.13
2023-02-26T00:42:30.735Z,1.13
2023-02-26T00:45:03.241Z,2.38
2023-02-26T00:47:49.878Z,2.30
2023-02-26T00:50:23.249Z,2.65
2023-02-26T00:53:02.371Z,2.17
2023-02-26T00:55:30.754Z,3.92
2023-02-26T00:58:00.561Z,1.92
2023-02-26T01:00:27.942Z,2.22
2023-02-26T01:02:55.869Z,2.13
2023-02-26T01:05:26.025Z,2.40
2023-02-26T01:08:24.604Z,2.28
2023-02-26T01:10:52.257Z,2.22
2023-02-26T01:13:20.158Z,1.35
2023-02-26T01:15:59.731Z,1.40
2023-02-26T01:18:37.337Z,1.23
2023-02-26T01:21:10.974Z,1.25
2023-02-26T01:23:46.892Z,1.95
2023-02-26T01:26:29.322Z,2.47
2023-02-26T01:31:45.240Z,1.30
2023-02-26T01:34:35.581Z,1.92
2023-02-26T01:37:22.628Z,1.63
2023-02-26T01:40:25.166Z,1.30
2023-02-26T01:43:00.507Z,1.45
2023-02-26T01:45:35.718Z,2.35
2023-02-26T01:48:11.693Z,2.90
2023-02-26T01:50:41.470Z,1.10
2023-02-26T01:53:19.418Z,1.20
2023-02-26T01:55:53.094Z,1.55
2023-02-26T01:58:25.720Z,0.88
2023-02-26T02:00:55.428Z,1.95
2023-02-26T02:03:24.916Z,3.88
2023-02-26T02:06:03.803Z,2.22
2023-02-26T02:08:35.846Z,1.88
2023-02-26T02:11:07.130Z,1.67
2023-02-26T02:14:02.226Z,1.97
2023-02-26T02:17:02.742Z,1.80
2023-02-26T02:20:18.939Z,1.48
2023-02-26T02:23:27.929Z,2.85
2023-02-26T02:26:08.257Z,2.88
2023-02-26T02:29:08.389Z,1.35
2023-02-26T02:32:00.750Z,1.25
2023-02-26T02:34:45.941Z,4.18
2023-02-26T02:37:32.771Z,1.60
2023-02-26T02:40:25.801Z,3.03
2023-02-26T02:43:26.306Z,1.63
2023-02-26T02:46:16.192Z,1.20
2023-02-26T02:49:04.713Z,2.03
2023-02-26T02:51:59.394Z,4.00
2023-02-26T02:54:45.284Z,2.38
2023-02-26T02:57:24.118Z,3.38
2023-02-26T03:00:05.352Z,3.13
2023-02-26T03:03:06.125Z,1.17
2023-02-26T03:05:33.508Z,2.08
2023-02-26T03:08:10.301Z,3.28
2023-02-26T03:10:37.887Z,2.58
2023-02-26T03:13:05.765Z,1.63
2023-02-26T03:16:09.382Z,4.28
2023-02-26T03:19:14.512Z,1.80
2023-02-26T03:22:01.524Z,3.15
2023-02-26T03:24:52.170Z,2.40
2023-02-26T03:27:34.111Z,2.13
2023-02-26T03:30:19.576Z,2.00
2023-02-26T03:33:06.568Z,0.98
2023-02-26T03:35:51.207Z,2.13
2023-02-26T03:39:19.761Z,1.83
2023-02-26T03:42:22.746Z,1.50
2023-02-26T03:45:03.043Z,3.75
2023-02-26T03:47:31.996Z,2.97
2023-02-26T03:50:21.335Z,2.80
2023-02-26T03:52:51.169Z,1.23
2023-02-26T03:55:29.864Z,1.67
2023-02-26T03:57:57.489Z,1.73
2023-02-26T04:00:31.247Z,3.00
2023-02-26T04:03:40.502Z,2.80
2023-02-26T04:06:08.336Z,4.40
2023-02-26T04:08:35.831Z,4.22
2023-02-26T04:11:19.347Z,1.10
2023-02-26T04:13:47.445Z,3.25
2023-02-26T04:16:15.762Z,1.52
2023-02-26T04:18:45.836Z,1.50
2023-02-26T04:21:16.243Z,2.92
2023-02-26T04:23:43.575Z,3.28
2023-02-26T04:26:11.069Z,2.03
2023-02-26T04:28:38.330Z,3.85
2023-02-26T04:31:07.037Z,1.02
2023-02-26T04:33:34.533Z,1.73
2023-02-26T04:36:01.858Z,2.35
2023-02-26T04:38:31.906Z,5.03
2023-02-26T04:40:58.987Z,3.03
2023-02-26T04:43:26.254Z,2.30
2023-02-26T04:45:53.459Z,1.73
2023-02-26T04:48:20.671Z,1.92
2023-02-26T04:50:48.474Z,1.70
2023-02-26T04:53:15.966Z,2.30
2023-02-26T04:55:43.356Z,2.47
2023-02-26T04:58:10.610Z,3.92
2023-02-26T05:00:37.822Z,2.28
2023-02-26T05:03:07.472Z,2.42
2023-02-26T05:05:34.672Z,2.13
2023-02-26T05:08:02.590Z,1.70
2023-02-26T05:10:32.283Z,1.15
2023-02-26T05:12:59.447Z,2.58
2023-02-26T05:15:26.676Z,1.48
2023-02-26T05:17:53.729Z,1.23
2023-02-26T05:20:21.174Z,2.65
2023-02-26T05:22:48.728Z,1.83
2023-02-26T05:25:16.051Z,2.80
2023-02-26T05:27:43.897Z,1.70
2023-02-26T05:30:15.169Z,2.10
2023-02-26T05:32:43.136Z,1.37
2023-02-26T05:35:10.742Z,1.50
2023-02-26T05:37:38.474Z,2.60
2023-02-26T05:40:10.492Z,2.15
2023-02-26T05:42:42.133Z,1.70
2023-02-26T05:45:12.102Z,2.35
2023-02-26T05:47:39.174Z,0.93
2023-02-26T05:50:08.037Z,5.70
2023-02-26T05:52:35.544Z,2.17
2023-02-26T05:55:05.827Z,3.00
2023-02-26T05:57:33.030Z,1.58
2023-02-26T06:00:00.250Z,2.97
2023-02-26T06:02:27.603Z,3.03
2023-02-26T06:04:54.686Z,3.10
2023-02-26T06:07:22.003Z,2.95
2023-02-26T06:09:49.092Z,1.92
2023-02-26T06:12:16.365Z,3.10
2023-02-26T06:14:43.401Z,1.75
2023-02-26T06:17:10.557Z,2.45
2023-02-26T06:19:37.791Z,1.98
2023-02-26T06:22:04.950Z,1.58
2023-02-26T06:24:32.094Z,2.63
2023-02-26T06:26:59.194Z,2.70
2023-02-26T06:29:26.326Z,3.35
2023-02-26T06:31:53.548Z,4.97
2023-02-26T06:34:22.220Z,1.98
2023-02-26T06:36:49.425Z,5.25
2023-02-26T06:39:16.787Z,7.10
2023-02-26T06:41:43.955Z,4.28
2023-02-26T06:44:11.825Z,4.00
2023-02-26T06:46:39.142Z,5.80
2023-02-26T06:49:06.303Z,4.47
2023-02-26T06:51:33.694Z,7.45
2023-02-26T06:54:00.756Z,5.57
2023-02-26T06:56:28.393Z,4.05
2023-02-26T06:58:55.566Z,2.55
2023-02-26T07:01:22.933Z,3.30
2023-02-26T07:03:50.495Z,3.17
2023-02-26T07:06:27.468Z,3.17
2023-02-26T07:08:55.972Z,3.80
2023-02-26T07:11:27.136Z,2.78
2023-02-26T07:13:55.170Z,5.28
2023-02-26T07:16:22.646Z,3.53
2023-02-26T07:18:49.800Z,2.03
2023-02-26T07:21:17.025Z,2.90
2023-02-26T07:23:44.173Z,2.58
2023-02-26T07:26:11.543Z,4.32
2023-02-26T07:28:38.681Z,2.00
2023-02-26T07:31:06.002Z,4.75
2023-02-26T07:33:35.102Z,5.30
2023-02-26T07:36:02.416Z,3.53
2023-02-26T07:38:29.455Z,3.33
2023-02-26T07:40:56.927Z,3.92
2023-02-26T07:43:24.585Z,5.32
2023-02-26T07:45:52.986Z,5.68
2023-02-26T07:48:23.246Z,3.90
2023-02-26T07:50:53.483Z,4.82
2023-02-26T07:53:20.963Z,7.93
2023-02-26T07:55:48.218Z,7.60
2023-02-26T07:58:17.536Z,4.95
2023-02-26T08:00:47.769Z,5.07
2023-02-26T08:03:15.597Z,7.10
2023-02-26T08:05:42.784Z,3.97
2023-02-26T08:08:10.206Z,5.43
2023-02-26T08:10:41.093Z,4.20
2023-02-26T08:13:09.504Z,4.93
2023-02-26T08:15:36.898Z,6.97
2023-02-26T08:18:04.234Z,7.10
2023-02-26T08:20:31.416Z,4.97
2023-02-26T08:22:58.583Z,3.80
2023-02-26T08:25:25.709Z,4.63
2023-02-26T08:27:52.967Z,6.60
2023-02-26T08:30:22.576Z,9.55
2023-02-26T08:32:49.981Z,9.10
2023-02-26T08:35:17.356Z,4.78
2023-02-26T08:37:47.084Z,5.45
2023-02-26T08:40:15.333Z,3.20
2023-02-26T08:42:44.571Z,7.13
2023-02-26T08:45:15.133Z,5.30
2023-02-26T08:47:55.657Z,5.90
2023-02-26T08:50:24.687Z,3.95
2023-02-26T08:52:52.781Z,5.40
2023-02-26T08:55:20.122Z,6.20
2023-02-26T08:57:49.639Z,7.15
2023-02-26T09:00:18.679Z,4.07
2023-02-26T09:02:46.734Z,4.63
2023-02-26T09:05:15.095Z,3.83
2023-02-26T09:07:43.321Z,6.22
2023-02-26T09:10:12.285Z,4.50
2023-02-26T09:12:42.411Z,4.88
2023-02-26T09:15:11.437Z,2.05
2023-02-26T09:17:41.614Z,6.90
2023-02-26T09:20:10.387Z,6.10
2023-02-26T09:22:38.542Z,5.63
2023-02-26T09:25:06.656Z,6.53
2023-02-26T09:27:35.693Z,3.70
2023-02-26T09:30:05.107Z,6.38
2023-02-26T09:32:32.509Z,7.15
2023-02-26T09:34:59.906Z,8.65
2023-02-26T09:37:29.567Z,5.47
2023-02-26T09:39:58.905Z,8.10
2023-02-26T09:42:50.211Z,5.50
2023-02-26T09:45:34.800Z,4.40
2023-02-26T09:48:15.181Z,9.52
2023-02-26T09:50:50.899Z,5.43
2023-02-26T09:53:20.597Z,6.30
2023-02-26T09:55:50.813Z,4.85
2023-02-26T09:58:33.082Z,3.78
2023-02-26T10:01:57.332Z,4.45
2023-02-26T10:04:51.932Z,8.88
2023-02-26T10:07:41.067Z,11.30
2023-02-26T10:10:59.588Z,6.95
2023-02-26T10:13:57.319Z,7.47
2023-02-26T10:16:33.708Z,4.03
2023-02-26T10:19:14.654Z,3.28
2023-02-26T10:21:54.608Z,6.00
2023-02-26T10:24:52.404Z,5.15
2023-02-26T10:27:38.303Z,5.80
2023-02-26T10:30:37.733Z,5.35
2023-02-26T10:33:14.368Z,5.40
2023-02-26T10:36:24.454Z,7.60
2023-02-26T10:39:12.968Z,6.13
2023-02-26T10:41:40.192Z,3.20
2023-02-26T10:44:22.491Z,4.22
2023-02-26T10:47:33.677Z,6.68
2023-02-26T10:50:10.771Z,4.72
2023-02-26T10:52:38.400Z,5.53
2023-02-26T10:55:20.746Z,4.55
2023-02-26T11:00:50.161Z,4.22
2023-02-26T11:05:49.015Z,4.05
2023-02-26T11:08:29.142Z,8.65
2023-02-26T11:11:02.412Z,4.78
2023-02-26T11:13:37.067Z,9.52
2023-02-26T11:16:18.734Z,5.40
2023-02-26T11:18:53.433Z,3.40
2023-02-26T11:21:27.390Z,5.97
2023-02-26T11:24:11.809Z,3.67
2023-02-26T11:26:45.933Z,4.95
2023-02-26T11:29:21.142Z,7.38
2023-02-26T11:31:55.369Z,4.22
2023-02-26T11:34:25.621Z,5.30
2023-02-26T11:36:59.034Z,5.75
2023-02-26T11:39:30.430Z,2.47
2023-02-26T11:42:01.135Z,2.60
2023-02-26T11:44:43.409Z,4.03
2023-02-26T11:47:22.240Z,1.38
2023-02-26T11:49:58.400Z,1.90
2023-02-26T11:52:41.356Z,2.08
2023-02-26T11:55:26.988Z,3.85
2023-02-26T11:57:55.714Z,4.95
2023-02-26T12:00:31.641Z,2.83
2023-02-26T12:03:04.994Z,3.10
2023-02-26T12:05:32.565Z,2.08
2023-02-26T12:07:59.828Z,3.22
2023-02-26T12:11:11.965Z,2.65
2023-02-26T12:14:01.864Z,5.90
2023-02-26T12:16:38.038Z,2.95
2023-02-26T12:19:10.837Z,3.03
2023-02-26T12:22:00.518Z,3.60
2023-02-26T12:25:06.821Z,3.10
2023-02-26T12:27:39.101Z,6.72
2023-02-26T12:30:36.480Z,6.32
2023-02-26T12:33:40.198Z,9.40
2023-02-26T12:36:54.348Z,4.32
2023-02-26T12:39:42.494Z,5.18
2023-02-26T12:42:34.067Z,7.38
2023-02-26T12:45:51.011Z,5.03
2023-02-26T12:48:33.330Z,6.28
2023-02-26T12:51:34.838Z,7.20
2023-02-26T12:54:11.984Z,7.95
2023-02-26T12:57:12.097Z,7.90
2023-02-26T12:59:57.158Z,8.57
2023-02-26T13:03:00.935Z,6.22
2023-02-26T13:06:16.575Z,5.85
2023-02-26T13:09:18.599Z,8.40
2023-02-26T13:12:13.445Z,5.97
2023-02-26T13:14:59.829Z,5.05
2023-02-26T13:18:02.161Z,7.50
2023-02-26T13:20:34.254Z,6.45
2023-02-26T13:23:18.484Z,5.53
2023-02-26T13:26:01.315Z,7.05
2023-02-26T13:28:39.286Z,4.45
2023-02-26T13:31:29.377Z,4.78
2023-02-26T13:34:03.558Z,3.78
2023-02-26T13:36:31.642Z,3.30
2023-02-26T13:39:21.687Z,4.78
2023-02-26T13:42:06.279Z,6.90
2023-02-26T13:44:33.279Z,9.05
2023-02-26T13:47:53.046Z,5.72
2023-02-26T13:51:01.649Z,5.25
2023-02-26T13:53:37.273Z,6.40
2023-02-26T13:56:44.044Z,6.70
2023-02-26T13:59:16.909Z,6.30
2023-02-26T14:02:19.199Z,6.90
2023-02-26T14:05:00.882Z,4.72
2023-02-26T14:07:53.993Z,3.75
2023-02-26T14:10:53.220Z,5.38
2023-02-26T14:13:44.597Z,6.53
2023-02-26T14:16:27.939Z,7.30
2023-02-26T14:19:18.768Z,6.35
2023-02-26T14:21:53.196Z,4.57
2023-02-26T14:24:46.392Z,5.72
2023-02-26T14:27:13.357Z,4.65
2023-02-26T14:29:53.670Z,5.00
2023-02-26T14:32:33.189Z,6.50
2023-02-26T14:35:12.890Z,4.95
2023-02-26T14:37:45.782Z,11.50
2023-02-26T14:40:25.673Z,7.80
2023-02-26T14:43:00.027Z,10.10
2023-02-26T14:45:42.475Z,7.22
2023-02-26T14:48:21.783Z,7.72
2023-02-26T14:51:11.797Z,3.95
2023-02-26T14:54:07.983Z,2.83
2023-02-26T14:57:13.353Z,3.95
2023-02-26T15:00:30.269Z,23.27
2023-02-26T15:03:35.369Z,5.20
2023-02-26T15:06:54.686Z,4.95
2023-02-26T15:09:59.148Z,5.80
2023-02-26T15:13:03.234Z,6.72
2023-02-26T15:15:39.494Z,6.97
2023-02-26T15:18:46.731Z,4.35
2023-02-26T15:21:27.172Z,1.75
2023-02-26T15:23:58.540Z,4.88
2023-02-26T15:26:31.028Z,6.22
2023-02-26T15:29:06.176Z,2.72
2023-02-26T15:31:48.115Z,2.60
2023-02-26T15:34:17.002Z,2.17
2023-02-26T15:36:47.645Z,4.63
2023-02-26T15:39:18.124Z,5.03
2023-02-26T15:41:49.360Z,3.50
2023-02-26T15:44:28.397Z,3.42
2023-02-26T15:47:01.470Z,4.43
2023-02-26T15:49:43.356Z,2.97
2023-02-26T15:52:20.921Z,3.80
2023-02-26T15:55:03.195Z,6.82
2023-02-26T15:57:31.406Z,4.72
2023-02-26T16:00:16.512Z,8.70
2023-02-26T16:02:45.764Z,7.63
2023-02-26T16:05:16.901Z,9.80
2023-02-26T16:07:44.086Z,6.95
2023-02-26T16:10:42.807Z,5.03
2023-02-26T16:13:17.716Z,3.90
2023-02-26T16:15:45.194Z,4.68
2023-02-26T16:18:22.816Z,5.30
2023-02-26T16:20:58.124Z,5.50
2023-02-26T16:23:51.000Z,8.07
2023-02-26T16:26:32.848Z,9.73
2023-02-26T16:29:07.068Z,13.90
2023-02-26T16:31:36.758Z,10.70
2023-02-26T16:34:45.909Z,12.32
2023-02-26T16:37:34.023Z,10.05
2023-02-26T16:40:25.383Z,6.10
2023-02-26T16:43:27.402Z,4.90
2023-02-26T16:45:59.594Z,3.35
2023-02-26T16:48:58.348Z,5.75
2023-02-26T16:51:29.567Z,6.60
2023-02-26T16:54:15.014Z,3.45
2023-02-26T16:56:47.893Z,3.72
2023-02-26T16:59:30.337Z,5.10
2023-02-26T17:04:58.008Z,5.00
2023-02-26T17:07:26.411Z,6.22
2023-02-26T17:09:59.309Z,7.38
2023-02-26T17:12:50.876Z,9.00
2023-02-26T17:15:31.014Z,8.95
2023-02-26T17:17:59.052Z,9.68
2023-02-26T17:20:32.124Z,7.82
2023-02-26T17:23:02.006Z,8.02
2023-02-26T17:25:38.044Z,7.68
2023-02-26T17:28:06.214Z,5.38
2023-02-26T17:30:36.105Z,5.32
2023-02-26T17:33:04.979Z,5.28
2023-02-26T17:35:32.513Z,7.55
2023-02-26T17:38:00.756Z,6.25
2023-02-26T17:40:36.468Z,10.10
2023-02-26T17:43:04.882Z,9.32
2023-02-26T17:45:35.982Z,10.90
2023-02-26T17:48:04.297Z,20.13
2023-02-26T17:50:54.974Z,26.08
2023-02-26T17:53:33.422Z,25.15
2023-02-26T17:56:00.982Z,24.23
2023-02-26T17:58:34.483Z,26.88
2023-02-26T18:01:04.216Z,34.10
2023-02-26T18:03:31.630Z,28.25
2023-02-26T18:05:59.106Z,26.95
2023-02-26T18:08:30.444Z,25.58
2023-02-26T18:10:59.699Z,30.37
2023-02-26T18:13:28.929Z,31.20
2023-02-26T18:16:02.957Z,22.25
2023-02-26T18:18:32.010Z,19.30
2023-02-26T18:21:02.309Z,15.77
2023-02-26T18:23:29.508Z,11.27
2023-02-26T18:25:56.650Z,12.20
2023-02-26T18:28:30.062Z,8.52
2023-02-26T18:31:00.144Z,16.15
2023-02-26T18:33:27.392Z,10.45
2023-02-26T18:35:57.523Z,10.80
2023-02-26T18:38:29.065Z,9.93
2023-02-26T18:40:56.764Z,7.85
2023-02-26T18:43:26.100Z,6.75
2023-02-26T18:45:53.225Z,6.68
2023-02-26T18:48:24.097Z,5.32
2023-02-26T18:50:51.359Z,6.68
2023-02-26T18:53:23.213Z,4.47
2023-02-26T18:55:54.485Z,8.25
2023-02-26T18:58:22.224Z,8.73
2023-02-26T19:00:49.708Z,7.97
2023-02-26T19:03:17.150Z,6.75
2023-02-26T19:05:44.403Z,7.00
2023-02-26T19:08:11.735Z,9.20
2023-02-26T19:11:03.837Z,8.43
2023-02-26T19:13:32.111Z,6.55
2023-02-26T19:15:59.445Z,11.57
2023-02-26T19:18:27.002Z,8.65
2023-02-26T19:20:54.474Z,10.32
2023-02-26T19:23:21.928Z,9.13
2023-02-26T19:25:51.453Z,7.07
2023-02-26T19:28:18.681Z,6.65
2023-02-26T19:30:45.869Z,8.57
2023-02-26T19:33:13.092Z,7.80
2023-02-26T19:35:40.303Z,9.35
2023-02-26T19:38:10.326Z,7.50
2023-02-26T19:40:38.259Z,6.72
2023-02-26T19:43:05.374Z,9.35
2023-02-26T19:45:32.510Z,10.75
2023-02-26T19:47:59.831Z,7.40
2023-02-26T19:50:27.399Z,7.10
2023-02-26T19:52:55.168Z,5.80
2023-02-26T19:55:22.277Z,5.68
2023-02-26T19:57:49.410Z,7.15
2023-02-26T20:00:17.118Z,5.28
2023-02-26T20:02:44.315Z,7.82
2023-02-26T20:05:16.983Z,3.90
2023-02-26T20:07:45.426Z,5.22
2023-02-26T20:10:15.122Z,4.68
2023-02-26T20:12:45.554Z,5.20
2023-02-26T20:15:13.310Z,5.13
2023-02-26T20:17:40.493Z,5.47
2023-02-26T20:20:11.040Z,5.88
2023-02-26T20:22:40.613Z,3.95
2023-02-26T20:25:09.142Z,2.97
2023-02-26T20:27:39.499Z,4.40
2023-02-26T20:30:07.800Z,4.95
2023-02-26T20:32:37.290Z,4.63
2023-02-26T20:35:08.454Z,4.78
2023-02-26T20:37:35.836Z,4.65
2023-02-26T20:40:05.211Z,5.20
2023-02-26T20:42:33.597Z,3.97
2023-02-26T20:45:01.177Z,6.25
2023-02-26T20:47:33.004Z,4.55
2023-02-26T20:50:00.281Z,3.22
2023-02-26T20:52:27.396Z,3.70
2023-02-26T20:54:54.498Z,3.35
2023-02-26T20:57:21.631Z,3.30
2023-02-26T20:59:48.933Z,4.18
2023-02-26T21:02:21.397Z,5.97
2023-02-26T21:04:51.219Z,4.82
2023-02-26T21:07:22.090Z,6.55
2023-02-26T21:09:55.538Z,8.13
2023-02-26T21:12:23.376Z,6.38
2023-02-26T21:14:54.764Z,8.10
2023-02-26T21:17:24.381Z,7.45
2023-02-26T21:19:52.284Z,6.10
2023-02-26T21:22:20.542Z,8.52
2023-02-26T21:24:48.085Z,8.98
2023-02-26T21:27:16.820Z,9.35
2023-02-26T21:29:44.284Z,12.05
2023-02-26T21:32:11.551Z,11.32
2023-02-26T21:34:38.779Z,11.50
2023-02-26T21:37:11.017Z,11.93
2023-02-26T21:42:08.483Z,15.82
2023-02-26T21:44:35.811Z,14.32
2023-02-26T21:47:03.947Z,16.25
2023-02-26T21:49:32.063Z,14.40
2023-02-26T21:52:01.464Z,12.48
2023-02-26T21:54:29.121Z,12.98
2023-02-26T21:56:56.852Z,11.88
2023-02-26T21:59:24.223Z,14.60
2023-02-26T22:01:53.221Z,15.10
2023-02-26T22:04:21.076Z,9.90
2023-02-26T22:06:48.475Z,9.02
2023-02-26T22:09:17.275Z,9.15
2023-02-26T22:11:44.467Z,12.02
2023-02-26T22:14:11.918Z,11.13
2023-02-26T22:16:40.371Z,11.27
2023-02-26T22:19:07.504Z,11.85
2023-02-26T22:21:37.178Z,12.43
2023-02-26T22:24:05.320Z,14.05
2023-02-26T22:26:32.753Z,16.05
2023-02-26T22:29:00.839Z,19.13
2023-02-26T22:31:32.448Z,25.30
2023-02-26T22:34:00.284Z,15.35
2023-02-26T22:36:29.981Z,18.30
2023-02-26T22:38:57.470Z,12.43
2023-02-26T22:41:24.702Z,14.68
2023-02-26T22:43:53.897Z,16.92
2023-02-26T22:46:24.475Z,13.65
2023-02-26T22:48:51.735Z,14.27
2023-02-26T22:51:18.920Z,14.13
2023-02-26T22:53:46.132Z,14.43
2023-02-26T22:56:13.520Z,15.02
2023-02-26T22:58:40.630Z,15.35
2023-02-26T23:01:08.622Z,15.57
2023-02-26T23:03:38.250Z,13.75
2023-02-26T23:06:06.088Z,12.90
2023-02-26T23:08:33.461Z,11.70
2023-02-26T23:11:02.999Z,14.50
2023-02-26T23:13:34.285Z,10.85
2023-02-26T23:16:07.550Z,9.60
2023-02-26T23:18:36.624Z,10.07
2023-02-26T23:21:05.891Z,13.23
2023-02-26T23:23:33.742Z,11.43
2023-02-26T23:26:00.941Z,11.88
2023-02-26T23:28:28.200Z,8.90
2023-02-26T23:30:55.483Z,10.75
2023-02-26T23:33:22.919Z,11.32
2023-02-26T23:35:52.377Z,11.68
2023-02-26T23:38:19.636Z,10.90
2023-02-26T23:40:46.741Z,11.05
2023-02-26T23:43:13.923Z,11.75
2023-02-26T23:45:43.411Z,15.35
2023-02-26T23:48:13.074Z,11.10
2023-02-26T23:50:41.918Z,13.70
2023-02-26T23:53:09.042Z,12.00
2023-02-26T23:55:36.162Z,12.38
2023-02-26T23:58:03.446Z,12.15
